Terminal Aerodrome Forecast
Issued by NWS

Home | Current Version | Previous Version | Text Only | Print | Product List | Glossary On
Versions: 1 2 3 4 5 6 7 8 9 10 11 12 13 14 15 16 17 18 19
000
FTUS43 KTOP 291200 AAA
TAFMHK
TAF AMD
KMHK 291252Z 2913/3012 00000KT 3SM BR SKC
     FM291400 16007KT P6SM FEW060
     FM300700 15004KT P6SM BKN090=

USA.gov is the U.S. government's official web portal to all federal, state and local government web resources and services.